Terminal Aerodrome Forecast
Issued by NWS

Home | Current Version | Previous Version | Text Only | Print | Product List | Glossary On
Versions: 1 2 3 4 5 6 7 8 9 10 11 12 13 14 15 16 17 18 19 20 21 22 23 24 25 26
000
FTUS43 KEAX 181300 AAA
TAFMKC
TAF AMD
KMKC 181331Z 1814/1912 09007KT 4SM BR OVC005
     FM181500 09008KT P6SM OVC008
     FM181700 10008KT P6SM SCT025
     FM190400 12009KT P6SM BKN020=

USA.gov is the U.S. government's official web portal to all federal, state and local government web resources and services.